Date,TemperatureHighF,TemperatureAvgF,TemperatureLowF,DewpointHighF,DewpointAvgF,DewpointLowF,HumidityHigh,HumidityAvg,HumidityLow,PressureMaxIn,PressureMinIn,WindSpeedMaxMPH,WindSpeedAvgMPH,GustSpeedMaxMPH,PrecipitationSumIn
2012-1-1,55.9,46.6,29.0,43.5,35.5,22.6,93,67,41,30.11,29.72,16,4,25,0.00
2012-1-2,44.3,34.6,27.3,26.5,17.5,9.4,68,50,33,29.97,29.85,19,6,26,0.00
2012-1-3,29.0,24.3,14.4,16.0,7.8,-3.7,65,50,27,30.30,29.96,20,8,28,0.00
2012-1-4,29.1,20.8,10.0,17.8,8.2,-2.7,74,58,46,30.33,29.99,6,1,12,0.00
2012-1-5,46.7,33.5,20.0,25.9,21.2,13.2,81,62,39,30.03,29.94,13,2,18,0.00
2012-1-6,64.5,41.9,24.1,33.3,26.3,18.9,83,57,27,29.94,29.77,10,1,14,0.00
2012-1-7,64.5,43.5,27.3,41.9,28.7,21.5,86,59,34,30.08,29.78,15,2,21,0.00
2012-1-8,47.0,34.9,23.6,31.3,25.0,18.5,86,68,46,30.35,30.08,10,2,15,0.00
2012-1-9,38.2,30.0,22.7,29.7,24.5,18.5,91,81,59,30.34,30.04,9,1,12,0.00
2012-1-10,54.2,36.3,22.2,34.2,28.0,20.0,96,75,39,30.05,29.97,9,2,15,0.00
2012-1-11,43.5,34.1,20.6,41.7,31.3,18.1,94,89,74,30.03,29.58,10,1,16,0.81
2012-1-12,57.2,46.8,38.9,47.2,42.6,37.9,97,86,68,29.58,29.31,12,2,23,0.07
2012-1-13,52.0,32.0,25.4,44.7,17.5,8.8,89,56,41,29.98,29.28,20,8,26,0.16
2012-1-14,34.7,27.8,23.6,17.5,13.0,10.7,61,54,43,30.17,29.98,12,5,20,0.00
2012-1-15,34.4,24.3,15.7,15.4,11.1,6.2,77,59,34,30.59,30.17,10,2,14,0.00
2012-1-16,41.2,30.3,14.1,32.6,19.0,9.9,84,64,46,30.58,30.10,13,4,22,0.05
2012-1-17,60.1,48.1,38.6,45.9,39.3,32.0,92,72,52,30.11,29.65,16,2,24,0.09
2012-1-18,53.6,34.1,17.0,36.9,19.1,10.3,79,55,40,30.21,29.72,23,6,27,0.00
2012-1-19,37.6,27.1,12.8,26.9,14.9,9.4,89,63,42,30.22,29.90,10,2,17,0.00
2012-1-20,36.3,28.7,23.0,27.2,13.5,4.8,88,54,39,30.31,29.96,11,3,15,0.05
2012-1-21,30.7,28.1,25.1,27.1,25.0,22.0,92,88,82,30.32,29.96,7,2,12,0.18
2012-1-22,29.3,28.0,26.1,27.5,24.4,21.2,94,86,76,30.47,30.32,5,1,8,0.00
2012-1-23,42.5,35.5,29.0,40.6,34.1,27.5,97,95,91,30.35,29.84,12,3,17,0.01
2012-1-24,55.7,41.6,29.1,41.6,33.5,28.1,98,76,43,30.22,29.89,9,1,13,0.00
2012-1-25,48.8,39.5,29.8,33.1,29.9,24.6,83,69,53,30.38,30.17,7,1,10,0.00
2012-1-26,44.1,40.9,38.6,42.8,36.2,31.1,96,83,68,30.18,29.69,7,2,10,0.05
2012-1-27,60.4,48.3,39.1,56.1,40.1,26.8,98,75,54,30.02,29.43,21,6,30,0.18
2012-1-28,52.9,40.1,30.4,33.9,25.2,9.6,86,58,28,30.19,29.89,16,3,25,0.00
2012-1-29,46.2,37.5,26.6,30.3,14.0,8.1,87,39,27,30.27,30.02,22,4,26,0.00
2012-1-30,44.8,34.8,26.3,24.5,17.9,11.9,74,52,27,30.41,30.19,8,2,13,0.00
2012-1-31,66.6,45.8,27.9,31.8,27.3,20.9,83,53,24,30.21,30.02,12,1,17,0.00
2012-2-1,64.7,52.3,40.9,48.2,38.0,29.0,88,59,45,30.04,29.98,12,2,20,0.00
2012-2-2,53.9,44.5,38.8,41.8,35.3,26.8,91,72,44,30.35,29.97,16,4,24,0.00
2012-2-3,49.6,36.3,24.4,30.3,25.8,20.3,87,67,45,30.53,30.34,12,1,16,0.00
2012-2-4,41.5,32.4,24.4,33.0,28.7,21.4,95,86,66,30.36,30.12,6,0,10,0.21
2012-2-5,41.9,33.9,25.6,34.4,30.3,22.5,97,87,65,30.24,30.10,6,0,10,0.01
2012-2-6,51.3,35.4,24.4,34.7,26.9,21.9,92,74,39,30.26,30.06,9,1,13,0.00
2012-2-7,54.2,38.3,23.2,33.5,26.8,19.6,88,66,37,30.25,30.08,11,2,16,0.00
2012-2-8,36.5,30.7,24.5,31.4,27.7,20.9,95,89,69,30.27,30.13,4,0,7,0.10
2012-2-9,45.4,32.2,19.2,30.6,21.9,15.7,95,68,36,30.29,30.17,10,1,16,0.00
2012-2-10,42.6,31.2,18.6,31.2,24.4,15.8,94,78,49,30.21,29.92,6,1,12,0.04
2012-2-11,39.9,29.8,19.9,34.8,24.2,8.0,97,81,50,29.98,29.67,22,5,31,0.06
2012-2-12,28.4,23.5,19.4,12.1,9.1,6.3,62,54,46,30.15,29.98,19,8,31,0.00
2012-2-13,47.4,32.6,20.8,22.5,15.7,10.6,78,52,27,30.22,30.07,13,2,20,0.00
2012-2-14,51.1,39.2,28.5,31.4,25.0,19.6,79,59,31,30.09,29.92,8,1,12,0.00
2012-2-15,51.9,40.9,31.2,32.9,30.1,25.5,85,67,43,30.28,30.02,13,2,20,0.00
2012-2-16,45.5,42.4,39.5,41.0,36.2,29.5,91,79,63,30.27,29.99,11,3,18,0.12
2012-2-17,52.3,43.0,28.5,41.0,30.7,21.9,95,65,34,30.12,29.99,12,3,17,0.00
2012-2-18,60.7,40.8,23.3,32.1,24.9,20.3,92,59,25,30.11,29.86,14,4,20,0.00
2012-2-19,43.8,36.1,27.6,26.4,23.5,19.9,79,61,44,30.12,29.92,6,1,10,0.00
2012-2-20,48.2,36.1,26.9,25.0,20.6,17.7,72,54,32,30.34,29.99,11,3,14,0.00
2012-2-21,49.1,39.4,25.1,32.0,25.6,17.0,74,58,47,30.33,29.83,15,4,21,0.00
2012-2-22,61.0,49.7,33.8,40.2,32.8,24.6,86,55,28,29.84,29.45,12,3,17,0.00
2012-2-23,62.4,53.4,43.3,40.5,35.5,28.3,75,53,30,29.64,29.42,14,3,22,0.00
2012-2-24,55.4,46.3,40.2,47.7,39.2,24.8,95,78,35,29.68,29.35,22,4,32,0.18
2012-2-25,41.6,36.9,33.2,25.9,18.9,13.6,65,48,36,30.28,29.67,25,10,33,0.00
2012-2-26,47.6,37.3,25.6,23.5,18.5,15.1,68,47,29,30.49,30.27,12,3,18,0.00
2012-2-27,65.2,47.7,23.3,31.4,24.6,17.3,82,44,24,30.37,30.11,14,3,21,0.00
2012-2-28,52.9,43.2,28.4,26.5,22.7,19.2,71,45,28,30.49,30.27,11,2,17,0.00
2012-2-29,45.8,42.2,37.5,44.4,36.6,21.0,98,83,38,30.27,29.62,10,3,17,1.58
2012-3-1,62.0,48.2,34.1,49.7,36.1,27.1,99,67,38,29.98,29.59,18,5,22,0.18
2012-3-2,50.4,40.2,25.4,43.8,34.4,23.1,95,81,56,30.03,29.63,11,3,16,0.33
2012-3-3,58.0,47.7,37.2,46.2,31.5,14.6,97,60,20,29.75,29.50,16,3,24,0.01
2012-3-4,43.2,36.6,27.6,27.1,22.4,17.3,85,57,38,29.90,29.70,14,4,17,0.00
2012-3-5,41.6,31.3,21.9,30.6,20.2,13.3,87,65,39,30.48,29.90,14,3,21,0.00
2012-3-6,48.2,34.8,17.7,24.4,19.8,13.4,88,57,35,30.67,30.48,10,2,16,0.00
2012-3-7,66.8,51.3,27.3,42.2,31.1,20.3,77,48,27,30.51,30.28,14,3,20,0.00
2012-3-8,70.3,61.3,48.2,50.9,46.2,40.2,80,59,45,30.28,29.91,15,5,24,0.02
2012-3-9,54.5,45.6,35.2,46.6,24.9,16.7,75,45,28,30.38,30.00,17,7,25,0.01
2012-3-10,46.4,36.5,26.1,19.6,15.4,11.5,65,43,26,30.59,30.38,11,2,16,0.00
2012-3-11,63.9,47.6,30.1,34.0,24.6,14.0,70,42,28,30.52,30.33,8,2,13,0.00
2012-3-12,69.8,51.9,32.7,44.7,34.5,27.7,87,56,27,30.35,30.08,7,1,12,0.00
2012-3-13,78.1,65.0,52.5,56.3,49.0,44.0,86,59,32,30.08,29.95,13,3,20,0.00
2012-3-14,59.2,54.2,50.1,48.5,45.9,44.1,82,74,65,30.05,30.03,1,0,4,0.00
2012-3-15,82.8,65.2,40.9,53.1,48.7,38.8,94,58,28,30.20,30.08,11,2,19,0.00
2012-3-16,68.4,57.5,50.2,56.6,51.4,48.0,94,81,64,30.17,30.10,10,1,14,0.03
2012-3-17,76.0,59.6,42.6,59.2,51.5,41.8,99,77,48,30.28,30.17,10,1,13,0.00
2012-3-18,65.2,58.7,52.6,55.6,52.9,50.1,94,81,70,30.33,30.16,8,2,14,0.00
2012-3-19,75.6,63.5,52.3,60.2,56.3,49.8,95,79,51,30.18,30.09,5,1,8,0.04
2012-3-20,72.8,64.0,55.0,61.6,58.4,51.9,94,83,63,30.25,30.14,4,1,7,0.00
2012-3-21,65.6,60.3,53.6,59.9,57.0,51.3,97,89,78,30.33,30.22,6,1,9,0.00
2012-3-22,76.5,66.3,56.7,64.3,59.7,54.7,96,80,61,30.25,30.07,6,1,9,0.00
2012-3-23,80.9,67.4,50.8,65.2,55.6,48.6,99,70,34,30.10,29.92,8,1,14,0.00
2012-3-24,70.1,60.4,53.8,59.3,56.4,51.8,94,87,58,29.92,29.85,8,2,14,0.24
2012-3-25,60.9,54.1,48.3,54.7,50.4,46.9,95,88,74,29.87,29.76,7,2,12,0.06
2012-3-26,57.5,51.8,37.9,52.1,31.6,8.5,85,49,27,30.24,29.81,17,7,28,0.00
2012-3-27,54.7,40.6,28.2,23.8,16.0,8.4,59,38,19,30.39,30.15,12,2,16,0.00
2012-3-28,75.3,58.9,39.1,56.9,40.7,15.6,79,52,30,30.15,29.64,13,2,18,0.01
2012-3-29,67.8,54.7,38.9,41.5,36.8,31.3,74,52,30,30.04,29.69,17,5,22,0.00
2012-3-30,52.2,41.5,30.1,40.5,34.3,27.5,93,76,62,30.12,29.79,9,2,14,0.00
2012-3-31,61.3,51.2,44.3,52.9,45.3,40.5,92,81,67,29.89,29.71,11,2,20,0.03
2012-4-1,64.5,53.2,44.5,52.1,45.1,40.3,92,75,52,29.91,29.56,8,1,12,0.07
2012-4-2,61.2,52.2,38.6,52.1,34.5,24.9,96,55,27,29.95,29.56,14,5,22,0.07
2012-4-3,69.6,48.9,27.5,38.9,30.7,24.6,92,56,24,30.06,29.77,5,0,10,0.00
2012-4-4,74.6,58.1,43.8,53.8,40.2,23.3,86,57,22,29.78,29.56,15,3,20,0.00
2012-4-5,59.5,47.2,32.2,36.4,30.8,25.3,89,56,33,29.90,29.75,7,1,12,0.00
2012-4-6,60.2,46.3,29.0,32.2,24.9,14.2,87,48,20,30.10,29.90,18,3,20,0.00
2012-4-7,64.2,47.7,26.3,30.3,21.8,14.4,83,40,20,30.24,30.08,15,3,21,0.00
2012-4-8,70.4,51.1,27.2,37.9,29.2,23.1,86,48,21,30.12,29.84,17,4,24,0.00
2012-4-9,63.2,54.7,45.2,38.7,30.6,19.0,68,41,26,29.92,29.78,17,7,28,0.00
2012-4-10,61.2,47.8,34.0,39.3,29.3,22.8,92,55,26,29.91,29.72,17,4,23,0.00
2012-4-11,50.7,39.4,28.1,36.5,29.7,22.1,92,70,40,30.07,29.89,15,3,23,0.04
2012-4-12,59.5,44.8,29.8,38.5,31.3,26.4,94,63,31,30.19,30.07,13,3,18,0.00
2012-4-13,65.3,48.0,31.0,38.4,32.3,27.3,89,59,26,30.29,30.17,8,1,12,0.00
2012-4-14,73.5,55.0,32.5,49.3,37.0,29.1,93,58,22,30.25,30.04,11,1,13,0.00
2012-4-15,82.2,66.7,50.7,57.6,52.8,48.3,95,65,37,30.07,29.95,11,1,14,0.01
2012-4-16,86.7,71.0,51.0,62.4,55.8,48.3,96,63,36,30.03,29.87,12,2,20,0.00
2012-4-17,77.6,62.7,46.0,52.5,42.3,30.9,83,49,27,30.23,29.96,12,3,18,0.00
2012-4-18,52.6,49.4,44.9,48.9,45.1,40.3,92,85,76,30.28,30.14,3,0,6,0.27
2012-4-20,71.3,65.7,59.6,55.9,52.5,50.1,84,63,54,29.98,29.77,10,3,17,0.00
2012-4-21,79.0,60.7,49.2,61.1,53.4,47.3,96,79,44,29.81,29.60,11,2,18,0.50
2012-4-22,51.3,47.8,41.3,48.0,45.1,39.1,95,90,84,29.81,29.48,11,4,17,0.84
2012-4-23,44.6,41.2,37.2,39.1,35.6,30.2,92,81,60,29.54,29.37,14,6,26,0.35
2012-4-24,59.5,47.1,34.0,34.3,28.2,20.9,86,53,24,29.73,29.50,13,3,23,0.00
2012-4-25,67.8,50.8,32.9,42.7,33.8,24.3,92,59,22,29.86,29.73,12,2,20,0.00
2012-4-26,70.4,60.5,46.8,60.2,49.6,32.5,85,68,41,29.86,29.57,15,2,23,0.01
2012-4-27,58.7,50.9,41.3,46.5,31.8,25.5,72,49,30,30.21,29.76,14,5,25,0.00
2012-4-28,51.7,43.6,33.1,40.5,31.2,24.5,87,63,36,30.31,30.14,3,0,5,0.04
2012-4-29,71.1,51.1,35.0,46.8,38.0,30.8,97,67,23,30.27,30.09,8,1,12,0.00
2012-4-30,61.8,51.0,36.5,53.0,39.5,23.1,91,67,36,30.32,30.06,10,2,13,0.00
2012-5-1,83.0,67.2,57.8,65.9,55.1,51.4,90,68,36,30.06,29.93,11,2,17,0.03
2012-5-2,81.4,66.7,56.7,66.4,60.2,54.1,94,81,58,30.08,29.95,13,1,22,0.00
2012-5-3,86.3,69.8,55.4,70.8,61.8,54.0,96,78,50,30.18,29.96,9,2,13,0.01
2012-5-4,84.9,72.7,60.5,68.1,62.1,56.1,97,72,39,30.00,29.85,12,1,20,0.00
2012-5-5,79.0,69.1,56.5,67.0,61.7,55.4,98,79,56,29.98,29.86,5,1,9,0.00
2012-5-6,71.5,65.2,61.2,62.0,59.4,56.9,92,82,67,30.06,29.95,5,1,9,0.00
2012-5-7,68.1,63.4,59.3,59.1,55.2,43.9,89,75,51,30.06,29.95,10,2,16,0.00
2012-5-8,69.8,63.8,58.3,65.0,57.2,42.4,96,80,50,29.99,29.76,8,2,16,0.32
2012-5-9,72.8,64.2,55.6,64.2,58.7,52.9,99,84,59,29.78,29.66,12,1,16,0.07
2012-5-10,64.5,55.5,42.5,54.9,44.1,38.3,97,68,40,29.96,29.63,17,4,25,0.00
2012-5-11,72.5,55.1,34.9,46.0,38.1,30.3,97,60,26,30.19,29.96,12,2,20,0.00
2012-5-12,76.0,59.3,40.2,52.0,45.3,37.2,96,65,28,30.32,30.18,6,1,12,0.00
2012-5-13,79.4,66.3,52.5,60.6,55.5,50.1,96,71,45,30.19,30.07,7,1,12,0.00
2012-5-14,64.7,62.3,59.5,62.3,60.3,57.1,96,93,84,30.09,29.99,4,0,12,0.62
2012-5-15,77.0,68.1,61.5,65.6,62.6,59.5,98,84,58,30.00,29.90,6,1,9,0.16
2012-5-16,82.4,69.6,55.1,63.9,57.2,47.9,99,70,31,29.94,29.83,6,1,10,0.00
2012-5-17,72.0,61.9,47.9,55.8,45.4,36.8,89,57,29,30.14,29.93,8,2,13,0.00
2012-5-18,75.8,58.6,39.5,53.2,46.6,38.2,98,69,35,30.20,30.10,5,0,10,0.00
2012-5-19,81.1,63.6,45.4,60.6,51.5,43.0,95,68,37,30.20,30.08,5,0,7,0.00
2012-5-20,82.8,67.3,49.6,59.9,54.5,48.5,98,68,34,30.19,30.08,7,1,13,0.00
2012-5-21,69.1,66.3,64.5,66.5,63.8,59.7,98,92,73,30.08,29.90,6,1,10,2.05
2012-5-22,78.6,68.9,63.9,68.3,64.3,59.6,98,86,62,29.90,29.78,10,1,16,0.04
2012-5-23,73.2,65.7,61.3,65.8,63.1,60.7,98,92,77,29.95,29.84,3,0,9,0.22
2012-5-24,80.5,70.8,64.5,66.8,64.5,62.5,96,82,55,30.06,29.95,8,1,14,0.15
2012-5-25,84.1,75.0,65.8,70.4,67.6,64.0,96,79,57,30.12,30.05,4,1,9,0.00
2012-5-26,87.8,76.5,64.0,74.3,69.2,62.8,98,80,56,30.14,30.05,6,0,8,0.00
2012-5-27,86.7,75.8,65.8,72.3,68.1,60.0,98,79,56,30.17,30.01,19,1,31,0.23
2012-5-28,89.9,77.1,62.9,73.4,68.1,60.9,97,76,50,30.09,29.84,15,1,23,0.00
2012-5-29,88.8,74.7,67.1,73.2,68.5,65.9,98,83,53,29.91,29.71,11,1,16,0.14
2012-5-30,84.7,72.0,62.1,68.0,61.8,56.6,97,73,43,29.83,29.69,7,1,12,0.00
2012-5-31,79.8,68.9,58.6,62.7,56.6,48.7,98,69,37,29.89,29.73,8,1,18,0.00
2012-6-1,74.9,68.2,59.9,70.2,61.7,53.2,96,80,60,29.88,29.62,9,2,17,0.83
2012-6-2,72.3,62.2,50.2,60.3,50.6,45.4,97,69,41,29.85,29.71,10,2,15,0.00
2012-6-3,77.0,63.5,50.1,55.4,51.0,47.3,92,67,37,29.85,29.70,9,2,17,0.05
2012-6-4,70.3,62.4,51.6,58.9,52.1,48.5,97,71,49,29.77,29.65,12,3,20,0.00
2012-6-5,68.1,60.0,51.7,53.5,51.1,48.5,89,73,53,29.96,29.77,5,1,10,0.00
2012-6-6,73.0,60.7,47.0,56.7,50.6,45.4,98,73,44,30.01,29.94,5,0,9,0.00
2012-6-7,69.4,57.6,53.2,56.7,52.7,50.0,93,85,55,30.03,29.99,4,0,7,0.00
2012-6-8,81.6,66.8,48.3,58.9,54.0,46.7,97,68,35,30.04,29.91,9,2,14,0.00
2012-6-9,87.8,72.0,54.1,61.2,55.3,48.1,92,61,28,30.00,29.92,10,1,15,0.00
2012-6-10,88.8,74.3,60.1,66.6,60.4,54.4,90,66,34,30.09,29.99,6,1,12,0.00
2012-6-11,84.1,73.0,60.1,68.4,62.6,59.0,98,72,47,30.12,30.03,9,1,15,0.00
2012-6-12,80.5,71.8,66.4,72.9,67.6,63.5,97,87,71,30.03,29.79,4,1,10,1.05
2012-6-13,76.3,68.5,60.4,65.1,56.2,49.5,98,68,40,30.08,29.86,11,3,18,0.01
2012-6-14,79.4,66.8,52.9,65.1,58.0,50.8,96,75,50,30.20,30.08,5,0,12,0.00
2012-6-15,79.2,69.3,58.9,62.4,58.5,54.6,94,71,45,30.29,30.20,6,0,9,0.00
2012-6-16,77.6,67.7,56.2,61.4,56.3,50.9,95,69,47,30.33,30.17,5,0,10,0.00
2012-6-17,65.5,59.7,53.5,57.7,53.1,50.1,92,79,69,30.19,30.16,3,0,7,0.00
2012-6-18,65.6,65.2,64.8,63.5,62.2,60.7,93,90,86,30.10,30.03,5,1,10,0.00
2012-6-19,89.0,75.0,65.6,73.5,68.2,63.2,94,81,54,30.14,30.04,4,0,7,0.00
2012-6-20,92.7,80.7,69.4,72.9,69.9,66.1,93,73,43,30.15,30.00,5,1,10,0.00
2012-6-21,92.9,81.1,68.1,73.9,70.7,66.9,97,73,46,30.01,29.82,4,0,9,0.00
2012-6-22,89.3,77.0,69.6,72.6,69.4,65.1,96,79,47,29.86,29.75,8,1,12,0.10
2012-6-23,85.1,73.7,61.8,69.0,62.6,54.2,99,73,37,30.01,29.86,8,1,12,0.01
2012-6-24,85.7,73.3,58.3,69.4,62.9,57.2,98,74,39,30.02,29.87,5,0,9,0.00
2012-6-25,80.7,71.8,63.2,68.0,57.8,42.1,96,66,33,29.87,29.73,13,3,20,0.12
2012-6-26,77.6,63.9,47.3,53.2,48.2,42.1,94,60,36,29.92,29.80,12,3,20,0.00
2012-6-27,84.1,68.4,49.1,58.8,54.0,47.0,96,65,34,29.94,29.84,12,2,16,0.00
2012-6-28,91.4,74.6,56.3,66.2,60.6,54.3,96,66,35,29.92,29.73,8,1,12,0.00
2012-6-29,100.2,84.0,68.9,77.6,70.1,65.0,96,66,36,29.86,29.64,32,1,40,0.62
2012-6-30,91.4,77.6,64.3,74.3,69.3,63.6,99,78,47,29.86,29.72,7,1,10,0.74
2012-7-1,92.9,81.2,69.8,73.0,69.6,63.7,97,71,40,29.90,29.78,8,1,12,0.00
2012-7-2,89.7,78.0,67.8,70.9,67.2,60.7,96,72,41,29.99,29.89,8,1,13,0.12
2012-7-3,91.4,76.8,65.8,71.1,67.0,62.3,97,75,40,29.97,29.87,12,0,17,0.07
2012-7-4,95.1,80.0,67.8,76.3,68.9,61.7,97,71,44,29.93,29.79,11,1,21,0.00
2012-7-5,93.8,82.1,67.9,73.9,68.2,63.2,93,65,43,29.87,29.79,11,2,16,0.00
2012-7-6,95.4,83.0,71.1,75.7,71.1,66.4,95,70,41,29.94,29.86,5,0,7,0.00
2012-7-7,99.9,85.8,74.0,76.5,72.2,65.8,93,67,38,29.91,29.80,9,1,13,0.00
2012-7-8,93.2,80.7,74.6,77.9,73.5,66.6,94,80,57,29.86,29.80,13,0,19,0.19
2012-7-9,83.8,76.0,70.4,73.6,68.8,60.7,98,81,47,29.97,29.83,6,0,9,0.75
2012-7-10,87.4,76.1,65.8,71.0,66.6,60.9,98,75,43,30.04,29.94,4,0,9,0.00
2012-7-11,86.1,75.6,66.0,72.2,66.3,62.2,97,75,47,30.14,30.02,6,0,14,0.00
2012-7-12,85.1,74.7,64.2,67.7,64.1,56.7,94,72,41,30.18,30.14,5,0,10,0.00
2012-7-13,82.0,73.9,67.3,67.1,65.0,60.1,94,75,50,30.22,30.16,3,0,5,0.00
2012-7-14,83.4,74.3,67.6,72.3,68.2,64.5,96,82,66,30.21,30.10,4,0,9,0.01
2012-7-15,90.7,78.9,72.1,73.9,71.1,68.9,94,78,50,30.12,29.97,11,1,16,0.00
2012-7-16,92.5,79.1,69.1,75.6,70.3,66.7,95,76,47,30.00,29.83,10,1,16,0.01
2012-7-17,97.3,81.3,66.0,71.8,68.3,57.7,98,69,31,29.91,29.78,7,1,12,0.00
2012-7-18,96.3,78.2,72.1,76.2,71.3,67.0,96,81,46,29.91,29.81,13,1,22,0.56
2012-7-19,89.7,78.4,70.9,73.9,71.1,68.6,98,80,56,29.96,29.81,15,1,27,0.47
2012-7-20,79.4,72.2,66.3,73.2,70.2,64.5,99,94,76,29.99,29.83,6,1,13,0.19
2012-7-21,70.1,66.2,63.2,66.4,64.4,62.5,98,94,85,30.14,29.97,4,0,7,0.45
2012-7-22,81.6,72.4,66.6,71.4,67.9,65.4,98,86,69,30.17,30.09,3,0,5,0.00
2012-7-23,87.2,77.4,66.9,74.5,69.9,66.0,99,79,54,30.11,29.89,7,1,12,0.00
2012-7-24,86.5,78.1,69.6,75.5,70.6,63.1,93,79,65,29.89,29.70,9,1,16,0.01
2012-7-25,83.8,73.4,60.4,66.5,60.5,52.2,98,67,36,29.97,29.81,5,0,10,0.00
2012-7-26,95.9,78.0,64.7,78.7,70.1,62.3,96,79,46,29.83,29.63,11,1,17,0.19
2012-7-27,86.5,78.3,71.5,73.7,71.1,68.8,98,80,57,29.87,29.71,8,1,13,0.00
2012-7-28,88.6,77.1,67.9,72.5,67.0,62.3,94,73,43,29.94,29.85,8,1,12,0.00
2012-7-29,85.3,74.0,62.1,70.0,64.8,60.6,98,75,47,30.02,29.93,7,1,10,0.00
2012-7-30,87.0,74.1,61.3,72.9,66.6,60.7,99,79,52,30.08,29.97,5,0,12,0.00
2012-7-31,87.6,76.5,67.9,72.0,68.5,65.2,94,78,53,30.01,29.84,9,1,16,0.06
2012-8-1,86.5,72.4,64.5,72.1,67.2,62.7,96,85,58,29.91,29.79,10,0,14,0.03
2012-8-2,90.1,76.6,65.0,73.5,68.8,64.6,100,80,47,29.91,29.83,4,0,7,0.01
2012-8-3,91.2,78.8,67.3,75.7,70.8,66.4,99,78,51,30.04,29.89,8,1,15,0.00
2012-8-4,91.8,82.2,73.9,74.6,70.7,68.0,89,70,47,30.12,30.03,10,2,17,0.00
2012-8-5,91.0,78.2,70.9,74.7,71.5,68.1,96,81,53,30.11,29.99,16,2,24,0.38
2012-8-6,88.2,77.4,67.6,72.8,69.5,62.3,98,79,43,30.07,29.96,6,1,9,0.01
2012-8-7,87.2,74.2,63.2,69.3,66.3,62.6,100,79,49,30.02,29.93,3,0,5,0.00
2012-8-8,90.7,77.7,67.8,72.4,67.7,59.7,99,75,37,29.99,29.90,4,0,7,0.00
2012-8-9,90.7,75.2,66.4,73.0,67.4,62.3,99,79,47,29.95,29.80,10,1,15,0.01
2012-8-10,84.3,74.8,68.1,71.7,68.5,64.7,98,82,61,29.83,29.68,8,1,14,0.27
2012-8-11,85.5,75.8,67.6,68.6,63.2,58.5,96,68,42,29.93,29.75,7,1,12,0.00
2012-8-12,84.0,71.2,58.6,63.9,60.4,55.6,97,71,42,30.00,29.92,6,1,12,0.00
2012-8-13,85.9,71.1,57.5,65.8,60.6,55.3,99,74,38,30.06,29.92,6,0,10,0.00
2012-8-14,84.9,75.4,68.4,71.6,68.0,64.4,98,79,55,29.92,29.79,7,0,12,0.15
2012-8-15,80.7,71.0,62.6,67.7,64.4,61.4,98,81,56,29.93,29.84,5,1,9,0.00
2012-8-16,86.1,69.1,56.9,65.3,61.1,56.1,99,79,38,30.00,29.93,6,1,10,0.00
2012-8-17,72.7,69.0,67.9,69.6,67.3,67.0,98,95,90,29.86,29.83,12,1,15,0.05
2012-8-18,81.8,70.8,59.2,67.7,60.6,50.5,98,74,36,29.93,29.85,9,1,12,0.00
2012-8-19,72.3,65.0,58.0,67.8,60.7,56.1,97,87,69,29.95,29.89,7,0,12,0.05
2012-8-20,78.5,67.2,62.6,65.2,62.7,60.7,98,87,59,29.96,29.83,11,1,17,0.11
2012-8-21,81.8,69.2,61.2,64.4,60.7,49.7,100,78,35,30.11,29.96,6,1,12,0.00
2012-8-22,85.7,70.2,57.5,63.7,59.9,55.3,97,73,37,30.15,30.07,9,1,16,0.00
2012-8-23,88.2,70.8,57.5,67.2,60.6,54.5,100,75,34,30.18,30.07,5,0,8,0.00
2012-8-24,87.0,72.5,60.2,67.9,63.8,58.8,99,77,41,30.18,30.10,4,0,6,0.00
2012-8-25,79.6,72.4,66.4,70.1,63.8,57.5,98,76,50,30.20,30.13,6,1,14,0.00
2012-8-26,77.0,71.3,68.8,73.9,68.5,64.4,98,91,79,30.22,30.13,7,1,14,1.36
2012-8-27,87.2,75.5,63.7,70.4,67.3,62.8,99,78,47,30.15,29.93,6,1,15,0.00
2012-8-28,86.3,76.3,63.7,70.2,65.2,58.9,94,71,43,29.96,29.89,11,1,14,0.03
2012-8-29,83.0,69.5,56.9,65.9,60.7,55.6,99,77,41,30.03,29.93,6,0,12,0.00
2012-8-30,84.9,70.5,58.3,65.2,61.1,56.6,99,76,39,30.12,30.02,4,0,7,0.00
2012-8-31,93.6,75.8,57.8,70.0,62.4,54.3,100,70,27,30.12,29.98,8,1,15,0.00
2012-9-1,89.5,77.4,70.3,74.1,69.0,65.3,92,76,55,30.07,29.97,6,0,10,0.01
2012-9-2,79.0,73.4,66.6,74.2,70.6,65.7,99,91,77,30.03,29.95,3,0,6,0.18
2012-9-3,84.7,76.4,71.6,73.7,71.5,69.4,99,86,62,30.03,29.96,9,1,14,0.01
2012-9-4,84.5,77.3,71.3,75.0,71.5,69.4,96,83,68,30.00,29.82,8,2,15,0.01
2012-9-5,90.1,79.9,73.2,73.7,71.2,67.4,92,76,49,29.83,29.75,5,1,10,0.00
2012-9-6,85.7,76.3,70.3,74.6,70.7,66.7,95,83,64,29.90,29.81,5,0,9,0.01
2012-9-7,91.0,78.5,67.6,71.7,68.4,64.5,96,74,43,29.94,29.78,8,1,14,0.00
2012-9-8,83.6,70.9,61.3,70.8,65.2,57.0,93,83,64,29.85,29.61,12,2,18,0.39
2012-9-9,77.2,63.5,51.0,60.1,52.8,43.9,99,72,33,29.99,29.84,13,2,20,0.01
2012-9-10,74.2,59.4,47.0,56.4,48.9,44.2,98,72,38,30.19,29.99,11,2,16,0.00
2012-9-11,76.3,58.0,41.1,53.9,47.3,40.0,99,73,33,30.33,30.19,6,0,9,0.00
2012-9-12,79.9,60.5,44.5,59.7,51.8,43.7,99,77,40,30.37,30.28,5,0,9,0.00
2012-9-13,80.7,63.1,48.3,61.2,53.5,47.5,99,75,39,30.37,30.25,6,1,10,0.00
2012-9-14,82.2,64.1,48.3,59.9,54.5,47.5,99,75,40,30.27,30.09,10,1,15,0.01
2012-9-15,75.3,64.3,49.8,62.0,51.2,45.1,92,65,35,30.25,30.12,11,3,16,0.00
2012-9-16,72.8,58.2,46.1,55.1,49.5,44.9,98,76,43,30.20,30.07,6,0,10,0.00
2012-9-17,75.4,60.3,44.9,63.6,55.1,43.8,100,84,59,30.12,29.93,8,1,15,0.01
2012-9-18,72.0,68.0,61.8,69.6,66.5,54.9,99,95,78,29.93,29.55,16,3,24,2.27
2012-9-19,68.3,59.1,45.2,54.9,47.6,40.5,93,68,38,30.17,29.85,9,2,15,0.01
2012-9-20,73.5,57.7,41.3,55.4,49.5,40.4,99,77,48,30.19,30.04,8,1,15,0.01
2012-9-21,79.4,64.0,50.7,63.4,56.5,49.3,96,78,53,30.05,29.95,6,1,12,0.01
2012-9-22,75.1,73.4,71.3,64.2,62.6,61.8,72,69,65,29.84,29.83,6,2,13,0.00
2012-9-23,54.2,54.2,54.2,44.2,44.2,44.2,69,69,69,30.14,30.14,0,0,18,0.00
2012-9-25,67.3,67.3,67.3,51.1,51.1,51.1,56,56,56,30.06,30.06,0,0,2,0.00
2012-9-28,59.8,59.8,59.8,49.6,49.6,49.6,69,69,69,30.01,30.00,7,5,17,0.00
2012-9-29,66.3,59.0,47.4,53.3,48.8,45.0,97,71,49,30.03,29.92,9,2,17,0.00
2012-9-30,70.4,55.0,45.2,52.1,49.2,43.9,97,83,48,29.93,29.80,10,1,17,0.10
2012-10-1,67.6,54.6,43.5,58.1,50.0,43.0,100,87,52,29.99,29.90,8,0,12,0.03
2012-10-2,65.6,61.6,58.1,65.6,60.9,56.1,100,98,93,29.95,29.88,3,0,4,0.85
2012-10-3,79.0,68.6,62.7,69.5,65.8,62.7,100,92,64,30.10,29.94,4,0,6,0.01
2012-10-4,78.5,68.5,55.4,70.3,62.8,53.3,100,84,46,30.15,30.08,7,1,12,0.01
2012-10-5,79.9,63.1,49.5,60.5,55.0,48.7,99,78,43,30.15,29.92,7,1,13,0.00
2012-10-6,71.8,57.5,43.3,60.8,50.6,40.9,98,79,54,30.08,29.83,15,2,25,0.01
2012-10-7,52.8,47.7,41.1,47.2,43.3,38.0,94,85,68,30.19,30.03,4,0,5,0.08
2012-10-8,46.7,41.6,35.5,43.3,39.5,34.3,98,92,80,30.32,30.18,4,0,7,0.04
2012-10-9,62.4,50.2,42.9,50.1,44.7,41.2,94,82,59,30.25,30.05,4,0,9,0.00
2012-10-10,68.4,52.1,40.3,53.0,44.1,36.7,99,77,44,30.10,29.86,12,2,18,0.00
2012-10-11,61.2,49.0,36.8,40.8,34.3,29.9,92,59,35,30.30,30.09,8,1,14,0.00
2012-10-12,59.6,44.2,32.1,43.6,35.8,29.6,97,75,43,30.44,30.15,13,2,20,0.00
2012-10-13,58.0,43.7,26.0,39.6,32.9,24.5,96,69,44,30.53,30.23,8,2,14,0.00
2012-10-14,73.3,60.0,48.9,55.6,48.7,39.6,80,67,50,30.23,29.87,8,2,16,0.00
2012-10-15,66.0,62.4,54.1,62.3,55.1,44.7,93,78,56,29.87,29.66,12,1,20,0.23
2012-10-16,61.8,52.7,38.5,45.1,41.3,36.2,92,67,44,29.93,29.82,12,2,20,0.00
2012-10-17,66.8,49.9,33.8,49.9,42.2,32.8,99,78,47,30.02,29.89,8,1,17,0.00
2012-10-18,68.3,58.6,48.9,58.5,51.9,45.5,99,79,62,29.92,29.77,9,2,18,0.86
2012-10-19,66.4,57.6,46.5,62.0,56.2,45.6,100,95,77,29.80,29.59,3,0,5,0.20
2012-10-20,63.1,51.3,40.3,52.1,41.5,35.8,99,73,40,29.94,29.67,11,2,18,0.01
2012-10-21,62.7,49.3,36.8,44.3,39.0,34.3,94,70,42,30.15,29.94,10,2,15,0.00
2012-10-22,71.8,50.0,33.8,49.5,41.6,32.5,98,76,41,30.23,30.09,6,1,10,0.00
2012-10-23,77.0,58.7,44.9,60.5,52.0,43.6,97,80,50,30.16,30.01,4,0,10,0.00
2012-10-24,80.3,63.4,51.1,61.1,54.6,50.0,99,77,38,30.13,30.04,5,0,7,0.00
2012-10-25,67.8,61.8,52.5,60.4,57.3,50.3,94,86,75,30.20,30.10,7,1,12,0.00
2012-10-26,67.1,61.8,56.0,59.0,57.2,53.1,94,85,71,30.18,30.04,5,0,10,0.00
2012-10-27,66.9,61.8,56.0,58.3,53.8,48.4,95,76,55,30.04,29.87,4,0,9,0.00
2012-10-28,58.3,55.5,50.8,53.4,50.6,47.0,96,84,68,29.87,29.64,9,2,16,0.26
2012-10-29,50.8,47.5,43.6,49.7,45.7,40.6,97,94,87,29.64,28.73,48,15,53,3.37
2012-10-30,44.9,40.8,38.9,41.0,38.2,36.8,93,90,83,29.45,28.70,40,11,45,0.71
2012-10-31,49.6,43.9,38.6,39.5,36.4,34.3,94,76,58,29.65,29.45,22,4,23,0.01
2012-11-1,49.5,45.6,40.2,37.6,34.7,32.9,77,66,56,29.75,29.64,28,7,31,0.00
2012-11-2,48.5,43.4,33.4,34.9,32.0,28.9,87,65,50,29.94,29.73,32,9,35,0.00
2012-11-3,45.7,43.1,40.5,33.8,30.5,27.9,72,61,56,30.08,29.93,28,10,30,0.00
2012-11-4,48.9,41.0,34.7,32.9,29.5,26.3,80,64,48,30.09,30.02,24,4,25,0.00
2012-11-5,47.7,38.7,24.7,30.5,26.3,21.1,87,62,46,30.20,30.05,26,7,28,0.00
2012-11-6,44.6,32.3,21.0,30.1,24.1,18.5,93,74,49,30.22,30.02,12,1,16,0.00
2012-11-7,42.1,37.0,31.8,28.9,26.8,22.5,84,67,51,30.03,29.92,22,4,22,0.00
2012-11-8,53.1,41.9,29.5,29.3,20.2,12.5,76,44,22,30.10,29.94,37,9,38,0.00
2012-11-9,58.0,40.8,27.2,39.0,31.2,23.6,90,71,42,30.24,30.09,23,4,25,0.00
2012-11-10,64.2,46.4,27.9,42.4,34.7,26.1,96,68,33,30.35,30.21,12,1,15,0.00
2012-11-11,67.8,52.2,31.5,45.9,39.0,29.0,95,64,39,30.44,30.32,18,2,22,0.00
2012-11-12,66.0,60.2,47.6,57.8,51.4,43.0,90,73,55,30.36,30.10,36,12,37,0.18
2012-11-13,47.6,40.1,25.4,44.2,31.3,21.5,92,72,47,30.52,30.23,24,8,25,0.44
2012-11-14,44.5,31.7,21.3,31.9,24.7,18.8,93,77,49,30.59,30.45,19,2,19,0.00
2012-11-15,43.1,33.1,24.1,33.6,28.7,21.6,93,84,68,30.45,30.32,8,0,10,0.00
2012-11-17,56.6,41.1,28.5,34.9,29.1,24.3,95,65,34,30.63,30.54,13,1,15,0.00
2012-11-18,52.8,39.5,24.8,37.9,31.9,22.4,94,76,53,30.65,30.49,11,1,16,0.00
2012-11-19,50.8,41.2,29.1,39.0,34.6,26.8,93,78,61,30.50,30.25,13,1,15,0.00
2012-11-20,49.1,37.1,27.8,39.5,33.1,26.6,97,86,66,30.25,30.10,9,0,10,0.01
2012-11-21,53.9,35.5,26.6,44.6,30.8,24.7,99,85,48,30.25,30.14,8,0,8,0.00
2012-11-22,59.0,35.6,22.4,37.2,27.8,20.4,96,77,33,30.30,30.12,8,0,8,0.01
2012-11-23,63.4,43.6,24.4,44.7,31.1,22.2,96,66,34,30.12,29.76,38,6,41,0.00
2012-11-24,41.6,36.3,32.2,25.3,19.7,16.4,55,51,45,30.05,29.88,36,17,38,0.00
2012-11-25,42.6,33.0,21.9,23.1,19.0,16.1,83,57,37,30.08,29.91,26,5,35,0.00
2012-11-26,52.2,35.0,20.2,31.7,25.1,16.2,89,70,41,30.20,30.00,10,1,13,0.00
2012-11-27,43.3,37.9,34.6,38.1,33.9,29.0,96,86,57,30.27,30.16,16,3,18,0.25
2012-11-28,45.5,36.7,29.0,32.8,24.9,18.9,87,65,36,30.37,30.24,27,4,30,0.00
2012-11-29,49.4,33.5,22.2,29.6,22.5,17.8,86,67,31,30.46,30.32,18,2,20,0.00
2012-11-30,53.5,36.3,20.6,33.0,25.3,17.9,92,68,35,30.38,30.28,9,1,12,0.00
2012-12-1,48.5,36.8,25.6,38.6,31.2,22.6,95,81,59,30.45,30.32,11,1,16,0.00
2012-12-2,55.9,42.4,28.5,45.3,37.5,27.0,99,84,62,30.39,30.10,10,1,12,0.00
2012-12-3,66.6,53.5,39.5,54.7,47.4,37.6,97,81,60,30.24,30.12,11,1,13,0.00
2012-12-4,73.0,58.4,44.3,56.0,49.7,43.0,98,75,47,30.21,29.96,17,2,18,0.00
2012-12-5,62.4,49.7,34.1,49.5,34.3,21.7,69,56,38,30.33,29.96,33,12,33,0.00
2012-12-6,43.6,33.2,20.0,26.8,22.3,16.4,89,65,46,30.39,30.20,16,2,18,0.00
2012-12-7,47.9,40.0,35.9,41.1,35.1,26.1,95,83,65,30.20,29.95,15,4,20,0.12
2012-12-8,57.8,44.3,36.5,48.1,41.5,35.2,99,91,68,30.02,29.86,7,0,8,0.01
2012-12-9,47.9,46.5,44.1,47.6,45.8,43.0,99,97,95,30.17,29.94,12,1,16,0.36
2012-12-10,57.5,50.9,41.3,55.5,49.6,39.7,100,95,77,29.94,29.54,30,3,35,0.02
2012-12-11,47.6,40.7,29.4,39.7,32.0,25.2,86,72,53,30.23,29.71,26,6,26,0.01
2012-12-12,40.6,33.2,27.2,32.7,27.1,23.8,92,79,57,30.45,30.23,14,1,16,0.00
2012-12-13,46.0,29.9,19.1,31.1,23.5,16.9,95,79,44,30.50,30.35,9,0,16,0.01
2012-12-14,55.3,31.8,18.0,31.5,23.0,15.4,93,74,33,30.35,30.21,10,1,12,0.00
2012-12-15,52.2,38.7,25.1,34.2,28.0,22.0,92,68,41,30.31,30.09,15,3,20,0.00
2012-12-16,46.5,44.8,42.3,42.1,38.9,32.0,90,80,59,30.10,29.82,18,5,20,0.00
2012-12-17,50.7,45.1,36.8,50.4,43.8,35.5,99,95,90,29.85,29.52,13,2,23,0.11
2012-12-18,55.4,45.7,34.1,48.9,38.9,27.5,100,79,57,29.82,29.49,40,8,40,0.01
2012-12-19,51.0,39.1,28.1,39.2,32.1,25.0,93,77,57,30.18,29.80,27,3,31,0.00
2012-12-20,47.0,38.7,29.5,45.1,33.8,26.9,95,83,62,30.20,29.36,32,6,40,0.20
2012-12-21,48.2,39.1,35.5,46.4,27.9,19.4,96,65,48,29.57,29.31,41,17,43,0.29
2012-12-22,40.3,36.0,29.5,23.5,20.8,18.7,64,54,45,30.04,29.56,47,23,50,0.00
2012-12-23,48.8,31.9,19.1,22.4,19.2,14.6,85,62,31,30.06,29.88,17,3,23,0.00
2012-12-24,36.6,29.4,20.8,32.2,25.7,17.5,98,86,63,30.09,29.90,13,1,18,0.24
2012-12-25,41.5,34.0,30.1,38.2,31.9,27.5,100,93,69,30.25,29.91,12,1,16,0.00
2012-12-26,35.2,31.8,28.8,32.9,28.7,24.3,97,88,72,30.24,29.49,24,5,41,1.00
2012-12-27,36.8,35.1,33.1,32.7,27.1,22.7,98,73,60,30.03,29.49,37,16,45,0.01
2012-12-28,37.9,34.0,28.5,26.7,24.5,22.7,86,68,56,30.16,30.02,24,4,25,0.00
2012-12-29,40.2,35.4,32.8,33.9,28.8,24.8,93,77,62,30.02,29.58,44,10,50,0.04
2012-12-30,36.3,33.2,26.0,25.6,20.6,17.0,69,60,50,30.34,29.83,42,17,45,0.00
2012-12-31,35.2,29.7,20.0,24.6,20.0,14.1,82,67,56,30.33,29.99,11,1,15,0.00
2013-1-1,40.6,37.6,32.7,29.3,27.4,22.6,78,67,56,30.03,29.92,27,2,27,0.00